Portada
METAR-TAF:

METAR-TAF

Aeropuertos :

Lechfeld, Alemania

latitud: 48-11N, longitud: 010-52E, altitud: 555 m

Observación

El informe se hizo hace 1 hora y 2 minutos, a las 06:20 UTC
Viento 6 kt del oeste
Temperatura 11°C
Humedad 94%
Presión 1007 hPa
Visibilidad: 9000 m

METAR: ETSL 070620Z AUTO 28006KT 9000 // ////// 11/10 Q1007 ///

Hora: 09:22 (07:22 UTC)


TAF: falta

Observaciones y pronósticos meteorológicos de más de 4000 aeropuertos (mensajes METAR y TAF).

Los puntos amarillos y rojos representan las estaciones disponibles.

Ponga el ratón en el punto deseado para ver el nombre de la estación.

Haga clic para ver las observaciones y los pronósticos meteorológicos.

Para cambiar el mapa : haga clic en los botones verdes con una cruz de color negro para hacer un zoom, en el botón verde con un guión para alejar o en las flechas verdes para mapas adyacentes.


METAR-TAF: